PWSweather.com
Personal Weather Stations
Station Observations
IMAZOWIE6
WarszawaPL

WarszawaPL

Lat: 52.27957, Lon: 21.05489

Elevation: 100

Station Type: WS1080

http://stacjapogody.waw.pl/

High Low Average
Temperature 75.2°F24.0°C 44.4°F6.9°C 62.6°F17.0°C
Dew Point -165.3°F-109.6°C -168.4°F-111.3°C -166.5°F-110.3°C
Winds Calm Calm Calm Calm Calm NCalm N
Wind Gusts -- -- --
Humidity - - -
Pressure 29.58 in1001.7 mb 29.38 in994.9 mb -
Precipitation 0.00 in0.0 mm - -
Hour Temp Dew Point Humidity Winds Wind Gusts Pressure Precip Precip Rate Daily Precip Total
12:05 AM 52.9°F11.6°C -167.5°F-110.8°C - Calm Calm -- 29.58 in1001.7 mb 0.00 in0.0 mm 0.00 in0.0 mm 0.00 in0.0 mm
12:20 AM 52.5°F11.4°C -167.5°F-110.8°C - Calm Calm -- 29.58 in1001.7 mb 0.00 in0.0 mm 0.00 in0.0 mm 0.00 in0.0 mm
12:35 AM 52.0°F11.1°C -167.6°F-110.9°C - Calm Calm -- 29.58 in1001.7 mb 0.00 in0.0 mm 0.00 in0.0 mm 0.00 in0.0 mm
12:50 AM 51.3°F10.7°C -167.7°F-110.9°C - Calm Calm -- 29.58 in1001.7 mb 0.00 in0.0 mm 0.00 in0.0 mm 0.00 in0.0 mm
01:05 AM 50.5°F10.3°C -167.7°F-110.9°C - Calm Calm -- 29.58 in1001.7 mb 0.00 in0.0 mm 0.00 in0.0 mm 0.00 in0.0 mm
01:20 AM 48.7°F9.3°C -167.9°F-111.1°C - Calm Calm -- 29.57 in1001.4 mb 0.00 in0.0 mm 0.00 in0.0 mm 0.00 in0.0 mm
01:35 AM 48.2°F9.0°C -168.0°F-111.1°C - Calm Calm -- 29.57 in1001.4 mb 0.00 in0.0 mm 0.00 in0.0 mm 0.00 in0.0 mm
01:50 AM 47.8°F8.8°C -168.0°F-111.1°C - Calm Calm -- 29.57 in1001.4 mb 0.00 in0.0 mm 0.00 in0.0 mm 0.00 in0.0 mm
02:05 AM 47.3°F8.5°C -168.1°F-111.2°C - Calm Calm -- 29.57 in1001.4 mb 0.00 in0.0 mm 0.00 in0.0 mm 0.00 in0.0 mm
02:20 AM 46.8°F8.2°C -168.1°F-111.2°C - Calm Calm -- 29.57 in1001.4 mb 0.00 in0.0 mm 0.00 in0.0 mm 0.00 in0.0 mm
02:35 AM 46.0°F7.8°C -168.2°F-111.2°C - Calm Calm -- 29.57 in1001.4 mb 0.00 in0.0 mm 0.00 in0.0 mm 0.00 in0.0 mm
02:50 AM 45.7°F7.6°C -168.2°F-111.2°C - Calm Calm -- 29.57 in1001.4 mb 0.00 in0.0 mm 0.00 in0.0 mm 0.00 in0.0 mm
03:05 AM 45.9°F7.7°C -168.2°F-111.2°C - Calm Calm -- 29.57 in1001.4 mb 0.00 in0.0 mm 0.00 in0.0 mm 0.00 in0.0 mm
03:20 AM 45.3°F7.4°C -168.3°F-111.3°C - Calm Calm -- 29.57 in1001.4 mb 0.00 in0.0 mm 0.00 in0.0 mm 0.00 in0.0 mm
03:35 AM 44.8°F7.1°C -168.3°F-111.3°C - Calm Calm -- 29.57 in1001.4 mb 0.00 in0.0 mm 0.00 in0.0 mm 0.00 in0.0 mm
03:50 AM 45.1°F7.3°C -168.3°F-111.3°C - Calm Calm -- 29.57 in1001.4 mb 0.00 in0.0 mm 0.00 in0.0 mm 0.00 in0.0 mm
04:05 AM 45.0°F7.2°C -168.3°F-111.3°C - Calm Calm -- 29.57 in1001.4 mb 0.00 in0.0 mm 0.00 in0.0 mm 0.00 in0.0 mm
04:20 AM 44.8°F7.1°C -168.3°F-111.3°C - Calm Calm -- 29.56 in1001.0 mb 0.00 in0.0 mm 0.00 in0.0 mm 0.00 in0.0 mm
04:35 AM 44.4°F6.9°C -168.4°F-111.3°C - Calm Calm -- 29.56 in1001.0 mb 0.00 in0.0 mm 0.00 in0.0 mm 0.00 in0.0 mm
04:50 AM 46.4°F8.0°C -168.2°F-111.2°C - Calm Calm -- 29.56 in1001.0 mb 0.00 in0.0 mm 0.00 in0.0 mm 0.00 in0.0 mm
05:05 AM 48.6°F9.2°C -167.9°F-111.1°C - Calm Calm -- 29.57 in1001.4 mb 0.00 in0.0 mm 0.00 in0.0 mm 0.00 in0.0 mm
05:20 AM 52.3°F11.3°C -167.6°F-110.9°C - Calm Calm -- 29.57 in1001.4 mb 0.00 in0.0 mm 0.00 in0.0 mm 0.00 in0.0 mm
05:35 AM 54.0°F12.2°C -167.4°F-110.8°C - Calm Calm -- 29.57 in1001.4 mb 0.00 in0.0 mm 0.00 in0.0 mm 0.00 in0.0 mm
05:50 AM 53.6°F12.0°C -167.4°F-110.8°C - Calm Calm -- 29.57 in1001.4 mb 0.00 in0.0 mm 0.00 in0.0 mm 0.00 in0.0 mm
06:05 AM 54.0°F12.2°C -167.4°F-110.8°C - Calm Calm -- 29.56 in1001.0 mb 0.00 in0.0 mm 0.00 in0.0 mm 0.00 in0.0 mm
06:20 AM 57.7°F14.3°C -167.0°F-110.6°C - Calm Calm -- 29.56 in1001.0 mb 0.00 in0.0 mm 0.00 in0.0 mm 0.00 in0.0 mm
06:35 AM 58.1°F14.5°C -167.0°F-110.6°C - Calm Calm -- 29.56 in1001.0 mb 0.00 in0.0 mm 0.00 in0.0 mm 0.00 in0.0 mm
06:50 AM 57.7°F14.3°C -167.0°F-110.6°C - Calm Calm -- 29.55 in1000.7 mb 0.00 in0.0 mm 0.00 in0.0 mm 0.00 in0.0 mm
07:05 AM 60.6°F15.9°C -166.7°F-110.4°C - Calm Calm -- 29.55 in1000.7 mb 0.00 in0.0 mm 0.00 in0.0 mm 0.00 in0.0 mm
07:20 AM 70.9°F21.6°C -165.7°F-109.8°C - Calm Calm -- 29.55 in1000.7 mb 0.00 in0.0 mm 0.00 in0.0 mm 0.00 in0.0 mm
07:35 AM 64.9°F18.3°C -166.3°F-110.2°C - Calm Calm -- 29.55 in1000.7 mb 0.00 in0.0 mm 0.00 in0.0 mm 0.00 in0.0 mm
07:50 AM 64.9°F18.3°C -166.3°F-110.2°C - Calm Calm -- 29.55 in1000.7 mb 0.00 in0.0 mm 0.00 in0.0 mm 0.00 in0.0 mm
08:06 AM 70.3°F21.3°C -165.8°F-109.9°C - Calm Calm -- 29.55 in1000.7 mb 0.00 in0.0 mm 0.00 in0.0 mm 0.00 in0.0 mm
08:16 AM 66.0°F18.9°C -166.2°F-110.1°C - Calm Calm -- 29.55 in1000.7 mb 0.00 in0.0 mm 0.00 in0.0 mm 0.00 in0.0 mm
08:32 AM 65.3°F18.5°C -166.3°F-110.2°C - Calm Calm -- 29.55 in1000.7 mb 0.00 in0.0 mm 0.00 in0.0 mm 0.00 in0.0 mm
08:48 AM 69.3°F20.7°C -165.9°F-109.9°C - Calm Calm -- 29.54 in1000.3 mb 0.00 in0.0 mm 0.00 in0.0 mm 0.00 in0.0 mm
09:04 AM 73.4°F23.0°C -165.5°F-109.7°C - Calm Calm -- 29.54 in1000.3 mb 0.00 in0.0 mm 0.00 in0.0 mm 0.00 in0.0 mm
09:19 AM 74.3°F23.5°C -165.4°F-109.7°C - Calm Calm -- 29.53 in1000.0 mb 0.00 in0.0 mm 0.00 in0.0 mm 0.00 in0.0 mm
09:34 AM 75.2°F24.0°C -165.3°F-109.6°C - Calm Calm -- 29.53 in1000.0 mb 0.00 in0.0 mm 0.00 in0.0 mm 0.00 in0.0 mm
09:49 AM 72.3°F22.4°C -165.6°F-109.8°C - Calm Calm -- 29.52 in999.7 mb 0.00 in0.0 mm 0.00 in0.0 mm 0.00 in0.0 mm
10:04 AM 73.0°F22.8°C -165.5°F-109.7°C - Calm Calm -- 29.52 in999.7 mb 0.00 in0.0 mm 0.00 in0.0 mm 0.00 in0.0 mm
10:20 AM 73.2°F22.9°C -165.5°F-109.7°C - Calm Calm -- 29.52 in999.7 mb 0.00 in0.0 mm 0.00 in0.0 mm 0.00 in0.0 mm
10:31 AM 73.2°F22.9°C -165.5°F-109.7°C - Calm Calm -- 29.51 in999.3 mb 0.00 in0.0 mm 0.00 in0.0 mm 0.00 in0.0 mm
10:47 AM 72.1°F22.3°C -165.6°F-109.8°C - Calm Calm -- 29.50 in999.0 mb 0.00 in0.0 mm 0.00 in0.0 mm 0.00 in0.0 mm
11:03 AM 69.3°F20.7°C -165.9°F-109.9°C - Calm Calm -- 29.50 in999.0 mb 0.00 in0.0 mm 0.00 in0.0 mm 0.00 in0.0 mm
11:20 AM 70.2°F21.2°C -165.8°F-109.9°C - Calm Calm -- 29.50 in999.0 mb 0.00 in0.0 mm 0.00 in0.0 mm 0.00 in0.0 mm
11:35 AM 72.0°F22.2°C -165.6°F-109.8°C - Calm Calm -- 29.49 in998.6 mb 0.00 in0.0 mm 0.00 in0.0 mm 0.00 in0.0 mm
11:46 AM 69.8°F21.0°C -165.8°F-109.9°C - Calm Calm -- 29.49 in998.6 mb 0.00 in0.0 mm 0.00 in0.0 mm 0.00 in0.0 mm
12:02 PM 69.1°F20.6°C -165.9°F-109.9°C - Calm Calm -- 29.49 in998.6 mb 0.00 in0.0 mm 0.00 in0.0 mm 0.00 in0.0 mm
12:18 PM 69.6°F20.9°C -165.8°F-109.9°C - Calm Calm -- 29.48 in998.3 mb 0.00 in0.0 mm 0.00 in0.0 mm 0.00 in0.0 mm
12:34 PM 71.8°F22.1°C -165.6°F-109.8°C - Calm Calm -- 29.48 in998.3 mb 0.00 in0.0 mm 0.00 in0.0 mm 0.00 in0.0 mm
12:50 PM 72.7°F22.6°C -165.5°F-109.7°C - Calm Calm -- 29.48 in998.3 mb 0.00 in0.0 mm 0.00 in0.0 mm 0.00 in0.0 mm
01:06 PM 73.0°F22.8°C -165.5°F-109.7°C - Calm Calm -- 29.48 in998.3 mb 0.00 in0.0 mm 0.00 in0.0 mm 0.00 in0.0 mm
01:16 PM 73.0°F22.8°C -165.5°F-109.7°C - Calm Calm -- 29.47 in998.0 mb 0.00 in0.0 mm 0.00 in0.0 mm 0.00 in0.0 mm
01:32 PM 73.0°F22.8°C -165.5°F-109.7°C - Calm Calm -- 29.47 in998.0 mb 0.00 in0.0 mm 0.00 in0.0 mm 0.00 in0.0 mm
01:48 PM 73.8°F23.2°C -165.4°F-109.7°C - Calm Calm -- 29.46 in997.6 mb 0.00 in0.0 mm 0.00 in0.0 mm 0.00 in0.0 mm
02:04 PM 74.5°F23.6°C -165.4°F-109.7°C - Calm Calm -- 29.46 in997.6 mb 0.00 in0.0 mm 0.00 in0.0 mm 0.00 in0.0 mm
02:20 PM 73.9°F23.3°C -165.4°F-109.7°C - Calm Calm -- 29.45 in997.3 mb 0.00 in0.0 mm 0.00 in0.0 mm 0.00 in0.0 mm
02:31 PM 73.8°F23.2°C -165.4°F-109.7°C - Calm Calm -- 29.44 in997.0 mb 0.00 in0.0 mm 0.00 in0.0 mm 0.00 in0.0 mm
02:47 PM 72.7°F22.6°C -165.5°F-109.7°C - Calm Calm -- 29.43 in996.6 mb 0.00 in0.0 mm 0.00 in0.0 mm 0.00 in0.0 mm
03:03 PM 72.9°F22.7°C -165.5°F-109.7°C - Calm Calm -- 29.42 in996.3 mb 0.00 in0.0 mm 0.00 in0.0 mm 0.00 in0.0 mm
03:19 PM 72.3°F22.4°C -165.6°F-109.8°C - Calm Calm -- 29.42 in996.3 mb 0.00 in0.0 mm 0.00 in0.0 mm 0.00 in0.0 mm
03:35 PM 72.1°F22.3°C -165.6°F-109.8°C - Calm Calm -- 29.42 in996.3 mb 0.00 in0.0 mm 0.00 in0.0 mm 0.00 in0.0 mm
03:46 PM 72.1°F22.3°C -165.6°F-109.8°C - Calm Calm -- 29.42 in996.3 mb 0.00 in0.0 mm 0.00 in0.0 mm 0.00 in0.0 mm
04:02 PM 72.3°F22.4°C -165.6°F-109.8°C - Calm Calm -- 29.42 in996.3 mb 0.00 in0.0 mm 0.00 in0.0 mm 0.00 in0.0 mm
04:18 PM 72.7°F22.6°C -165.5°F-109.7°C - Calm Calm -- 29.41 in995.9 mb 0.00 in0.0 mm 0.00 in0.0 mm 0.00 in0.0 mm
04:34 PM 72.5°F22.5°C -165.6°F-109.8°C - Calm Calm -- 29.41 in995.9 mb 0.00 in0.0 mm 0.00 in0.0 mm 0.00 in0.0 mm
04:50 PM 72.9°F22.7°C -165.5°F-109.7°C - Calm Calm -- 29.40 in995.6 mb 0.00 in0.0 mm 0.00 in0.0 mm 0.00 in0.0 mm
05:06 PM 72.7°F22.6°C -165.5°F-109.7°C - Calm Calm -- 29.39 in995.3 mb 0.00 in0.0 mm 0.00 in0.0 mm 0.00 in0.0 mm
05:16 PM 72.3°F22.4°C -165.6°F-109.8°C - Calm Calm -- 29.39 in995.3 mb 0.00 in0.0 mm 0.00 in0.0 mm 0.00 in0.0 mm
05:32 PM 71.4°F21.9°C -165.7°F-109.8°C - Calm Calm -- 29.39 in995.3 mb 0.00 in0.0 mm 0.00 in0.0 mm 0.00 in0.0 mm
05:48 PM 70.3°F21.3°C -165.8°F-109.9°C - Calm Calm -- 29.38 in994.9 mb 0.00 in0.0 mm 0.00 in0.0 mm 0.00 in0.0 mm
06:04 PM 70.2°F21.2°C -165.8°F-109.9°C - Calm Calm -- 29.38 in994.9 mb 0.00 in0.0 mm 0.00 in0.0 mm 0.00 in0.0 mm
06:20 PM 69.8°F21.0°C -165.8°F-109.9°C - Calm Calm -- 29.38 in994.9 mb 0.00 in0.0 mm 0.00 in0.0 mm 0.00 in0.0 mm
06:31 PM 69.4°F20.8°C -165.9°F-109.9°C - Calm Calm -- 29.38 in994.9 mb 0.00 in0.0 mm 0.00 in0.0 mm 0.00 in0.0 mm
06:47 PM 69.4°F20.8°C -165.9°F-109.9°C - Calm Calm -- 29.40 in995.6 mb 0.00 in0.0 mm 0.00 in0.0 mm 0.00 in0.0 mm
07:03 PM 67.5°F19.7°C -166.1°F-110.1°C - Calm Calm -- 29.43 in996.6 mb 0.01 in0.3 mm 0.02 in0.5 mm 0.01 in0.3 mm
07:19 PM 63.0°F17.2°C -166.5°F-110.3°C - Calm Calm -- 29.40 in995.6 mb 0.05 in1.3 mm 0.14 in3.6 mm 0.05 in1.3 mm
07:35 PM 61.2°F16.2°C -166.7°F-110.4°C - Calm Calm -- 29.39 in995.3 mb 0.05 in1.3 mm 0.00 in0.0 mm 0.05 in1.3 mm
07:46 PM 60.6°F15.9°C -166.7°F-110.4°C - Calm Calm -- 29.40 in995.6 mb 0.05 in1.3 mm 0.00 in0.0 mm 0.05 in1.3 mm
08:02 PM 61.2°F16.2°C -166.7°F-110.4°C - Calm Calm -- 29.41 in995.9 mb 0.06 in1.5 mm 0.02 in0.5 mm 0.06 in1.5 mm
08:18 PM 61.5°F16.4°C -166.6°F-110.3°C - Calm Calm -- 29.42 in996.3 mb 0.05 in1.3 mm 0.00 in0.0 mm 0.06 in1.5 mm
08:34 PM 61.0°F16.1°C -166.7°F-110.4°C - Calm Calm -- 29.42 in996.3 mb 0.05 in1.3 mm 0.00 in0.0 mm 0.06 in1.5 mm
08:50 PM 61.0°F16.1°C -166.7°F-110.4°C - Calm Calm -- 29.43 in996.6 mb 0.05 in1.3 mm 0.00 in0.0 mm 0.06 in1.5 mm
09:06 PM 61.2°F16.2°C -166.7°F-110.4°C - Calm Calm -- 29.43 in996.6 mb 0.05 in1.3 mm 0.00 in0.0 mm 0.06 in1.5 mm
09:16 PM 61.0°F16.1°C -166.7°F-110.4°C - Calm Calm -- 29.43 in996.6 mb 0.01 in0.3 mm 0.00 in0.0 mm 0.06 in1.5 mm
09:32 PM 60.6°F15.9°C -166.7°F-110.4°C - Calm Calm -- 29.42 in996.3 mb 0.01 in0.3 mm 0.00 in0.0 mm 0.06 in1.5 mm
09:48 PM 60.3°F15.7°C -166.8°F-110.4°C - Calm Calm -- 29.42 in996.3 mb 0.01 in0.3 mm 0.00 in0.0 mm 0.06 in1.5 mm
10:04 PM 59.7°F15.4°C -166.8°F-110.4°C - Calm Calm -- 29.42 in996.3 mb 0.01 in0.3 mm 0.00 in0.0 mm 0.06 in1.5 mm
10:20 PM 59.5°F15.3°C -166.8°F-110.4°C - Calm Calm -- 29.43 in996.6 mb 0.00 in0.0 mm 0.00 in0.0 mm 0.06 in1.5 mm
10:31 PM 59.0°F15.0°C -166.9°F-110.5°C - Calm Calm -- 29.43 in996.6 mb 0.00 in0.0 mm 0.00 in0.0 mm 0.06 in1.5 mm
10:47 PM 58.6°F14.8°C -166.9°F-110.5°C - Calm Calm -- 29.44 in997.0 mb 0.00 in0.0 mm 0.00 in0.0 mm 0.06 in1.5 mm
11:03 PM 58.6°F14.8°C -166.9°F-110.5°C - Calm Calm -- 29.44 in997.0 mb 0.00 in0.0 mm 0.00 in0.0 mm 0.06 in1.5 mm
11:19 PM 58.3°F14.6°C -167.0°F-110.6°C - Calm Calm -- 29.44 in997.0 mb 0.00 in0.0 mm 0.00 in0.0 mm 0.06 in1.5 mm
11:35 PM 58.5°F14.7°C -167.0°F-110.6°C - Calm Calm -- 29.44 in997.0 mb 0.00 in0.0 mm 0.00 in0.0 mm 0.06 in1.5 mm
11:46 PM 57.9°F14.4°C -167.0°F-110.6°C - Calm Calm -- 29.44 in997.0 mb 0.00 in0.0 mm 0.00 in0.0 mm 0.06 in1.5 mm